createdAt,value
2018-05-11T00:01:43.402Z,13.60
2018-05-11T00:04:09.687Z,13.30
2018-05-11T00:06:35.969Z,13.60
2018-05-11T00:09:02.380Z,13.60
2018-05-11T00:11:28.666Z,13.20
2018-05-11T00:13:54.923Z,13.20
2018-05-11T00:16:21.220Z,13.40
2018-05-11T00:18:48.233Z,13.10
2018-05-11T00:21:14.530Z,13.30
2018-05-11T00:23:40.813Z,13.10
2018-05-11T00:26:07.826Z,13.30
2018-05-11T00:28:34.154Z,13.20
2018-05-11T00:31:00.440Z,12.90
2018-05-11T00:33:27.482Z,12.80
2018-05-11T00:35:54.489Z,12.80
2018-05-11T00:38:20.761Z,12.90
2018-05-11T00:40:47.798Z,12.80
2018-05-11T00:43:14.062Z,12.70
2018-05-11T00:45:40.404Z,12.60
2018-05-11T00:48:06.672Z,12.70
2018-05-11T00:50:32.946Z,12.30
2018-05-11T00:52:59.255Z,12.70
2018-05-11T00:55:38.514Z,12.70
2018-05-11T00:58:04.815Z,12.80
2018-05-11T01:00:31.830Z,12.10
2018-05-11T01:02:58.110Z,12.60
2018-05-11T01:05:25.114Z,12.50
2018-05-11T01:07:51.386Z,12.40
2018-05-11T01:10:18.403Z,12.40
2018-05-11T01:12:44.670Z,12.40
2018-05-11T01:15:10.981Z,12.30
2018-05-11T01:17:37.266Z,12.30
2018-05-11T01:20:03.609Z,12.20
2018-05-11T01:22:29.877Z,12.30
2018-05-11T01:24:56.885Z,12.30
2018-05-11T01:27:23.190Z,12.40
2018-05-11T01:29:49.471Z,12.30
2018-05-11T01:32:16.536Z,12.40
2018-05-11T01:34:43.536Z,12.40
2018-05-11T01:37:09.815Z,12.40
2018-05-11T01:39:36.110Z,12.00
2018-05-11T01:42:02.498Z,12.20
2018-05-11T01:44:28.801Z,12.20
2018-05-11T01:46:55.784Z,11.90
2018-05-11T01:49:22.042Z,11.90
2018-05-11T01:51:48.362Z,12.00
2018-05-11T01:54:14.643Z,11.60
2018-05-11T01:56:41.654Z,11.90
2018-05-11T01:59:07.950Z,11.80
2018-05-11T02:01:34.199Z,12.00
2018-05-11T02:04:00.474Z,11.90
2018-05-11T02:06:27.563Z,11.90
2018-05-11T02:08:53.823Z,11.60
2018-05-11T02:11:20.099Z,12.00
2018-05-11T02:13:46.408Z,12.00
2018-05-11T02:16:13.433Z,11.90
2018-05-11T02:18:39.761Z,11.90
2018-05-11T02:21:05.996Z,11.70
2018-05-11T02:23:32.289Z,11.90
2018-05-11T02:25:58.598Z,11.90
2018-05-11T02:28:25.590Z,11.60
2018-05-11T02:30:51.860Z,11.60
2018-05-11T02:33:18.863Z,11.90
2018-05-11T02:35:45.190Z,11.90
2018-05-11T02:38:11.463Z,12.00
2018-05-11T02:40:38.481Z,11.60
2018-05-11T02:43:04.762Z,11.80
2018-05-11T02:45:31.057Z,11.60
2018-05-11T02:47:57.366Z,11.30
2018-05-11T02:50:23.623Z,11.50
2018-05-11T02:52:49.929Z,11.30
2018-05-11T02:55:16.238Z,11.40
2018-05-11T02:57:42.536Z,11.50
2018-05-11T03:00:08.811Z,11.50
2018-05-11T03:02:35.072Z,11.20
2018-05-11T03:05:01.402Z,11.30
2018-05-11T03:07:27.678Z,11.40
2018-05-11T03:09:53.951Z,11.30
2018-05-11T03:12:20.240Z,11.60
2018-05-11T03:14:46.502Z,11.30
2018-05-11T03:17:12.787Z,11.70
2018-05-11T03:19:39.066Z,11.60
2018-05-11T03:22:05.660Z,11.30
2018-05-11T03:24:31.933Z,11.40
2018-05-11T03:26:58.203Z,11.20
2018-05-11T03:29:24.486Z,11.10
2018-05-11T03:31:50.761Z,11.40
2018-05-11T03:34:17.073Z,11.40
2018-05-11T03:36:44.085Z,10.80
2018-05-11T03:39:10.342Z,11.00
2018-05-11T03:41:36.609Z,11.00
2018-05-11T03:44:02.922Z,10.90
2018-05-11T03:46:30.305Z,10.90
2018-05-11T03:48:57.323Z,11.20
2018-05-11T03:51:23.621Z,11.00
2018-05-11T03:53:49.919Z,11.00
2018-05-11T03:56:16.229Z,10.90
2018-05-11T03:58:42.542Z,11.00
2018-05-11T04:04:21.565Z,11.20
2018-05-11T04:07:01.008Z,10.90
2018-05-11T04:09:27.297Z,11.00
2018-05-11T04:11:53.586Z,11.10
2018-05-11T04:14:20.631Z,10.90
2018-05-11T04:16:47.637Z,10.90
2018-05-11T04:19:13.910Z,11.10
2018-05-11T04:21:40.177Z,10.90
2018-05-11T04:24:06.434Z,10.90
2018-05-11T04:26:32.722Z,11.00
2018-05-11T04:28:58.983Z,10.80
2018-05-11T04:31:25.258Z,11.10
2018-05-11T04:33:52.290Z,11.00
2018-05-11T04:36:18.557Z,10.90
2018-05-11T04:38:44.855Z,11.00
2018-05-11T04:41:11.127Z,11.50
2018-05-11T04:43:37.462Z,11.00
2018-05-11T04:46:03.730Z,11.40
2018-05-11T04:48:29.993Z,11.50
2018-05-11T04:50:57.019Z,11.30
2018-05-11T04:53:23.320Z,11.50
2018-05-11T04:55:49.650Z,11.30
2018-05-11T04:58:15.906Z,11.40
2018-05-11T05:00:42.162Z,11.50
2018-05-11T05:03:09.194Z,11.40
2018-05-11T05:05:35.450Z,11.80
2018-05-11T05:08:01.721Z,11.60
2018-05-11T05:10:28.026Z,11.90
2018-05-11T05:12:54.280Z,11.70
2018-05-11T05:15:20.552Z,11.80
2018-05-11T05:17:47.588Z,12.30
2018-05-11T05:20:14.595Z,12.40
2018-05-11T05:22:40.888Z,12.30
2018-05-11T05:25:07.947Z,12.10
2018-05-11T05:27:34.221Z,12.00
2018-05-11T05:30:00.530Z,12.30
2018-05-11T05:32:26.790Z,12.20
2018-05-11T05:34:53.062Z,12.80
2018-05-11T05:37:19.329Z,12.10
2018-05-11T05:39:45.602Z,12.30
2018-05-11T05:42:12.605Z,12.10
2018-05-11T05:44:38.890Z,12.30
2018-05-11T05:47:05.178Z,12.80
2018-05-11T05:49:31.453Z,12.70
2018-05-11T05:51:57.836Z,12.80
2018-05-11T05:54:24.038Z,12.80
2018-05-11T05:56:50.338Z,12.80
2018-05-11T05:59:16.620Z,12.70
2018-05-11T06:01:42.911Z,13.00
2018-05-11T06:04:09.935Z,13.60
2018-05-11T06:06:36.948Z,13.70
2018-05-11T06:09:03.294Z,13.50
2018-05-11T06:11:29.558Z,13.30
2018-05-11T06:13:56.597Z,13.10
2018-05-11T06:16:22.908Z,13.10
2018-05-11T06:18:49.925Z,13.10
2018-05-11T06:21:16.257Z,13.20
2018-05-11T06:23:42.518Z,13.50
2018-05-11T06:26:08.816Z,13.70
2018-05-11T06:28:35.062Z,13.40
2018-05-11T06:31:01.327Z,13.70
2018-05-11T06:33:27.602Z,13.70
2018-05-11T06:35:53.874Z,13.70
2018-05-11T06:38:20.926Z,14.10
2018-05-11T06:40:47.924Z,14.20
2018-05-11T06:43:14.194Z,14.30
2018-05-11T06:45:40.547Z,14.00
2018-05-11T06:48:06.884Z,14.10
2018-05-11T06:50:33.170Z,14.10
2018-05-11T06:52:59.474Z,14.10
2018-05-11T06:55:25.761Z,14.10
2018-05-11T06:57:52.838Z,15.30
2018-05-11T07:00:19.105Z,15.50
2018-05-11T07:02:45.398Z,16.00
2018-05-11T07:05:11.671Z,16.10
2018-05-11T07:07:38.021Z,16.50
2018-05-11T07:10:04.233Z,16.20
2018-05-11T07:12:30.490Z,16.00
2018-05-11T07:14:56.852Z,15.40
2018-05-11T07:17:23.158Z,15.90
2018-05-11T07:19:50.155Z,17.60
2018-05-11T07:22:16.464Z,17.50
2018-05-11T07:24:42.719Z,17.80
2018-05-11T07:27:09.001Z,17.10
2018-05-11T07:29:35.295Z,16.70
2018-05-11T07:32:01.578Z,16.40
2018-05-11T07:34:27.839Z,16.10
2018-05-11T07:36:54.120Z,16.40
2018-05-11T07:39:20.410Z,16.50
2018-05-11T07:41:46.675Z,17.20
2018-05-11T07:44:12.938Z,17.50
2018-05-11T07:46:39.207Z,17.30
2018-05-11T07:49:06.243Z,16.60
2018-05-11T07:51:32.536Z,16.40
2018-05-11T07:53:58.833Z,16.60
2018-05-11T07:56:25.850Z,18.60
2018-05-11T07:58:52.134Z,18.40
2018-05-11T08:01:18.389Z,19.00
2018-05-11T08:03:44.703Z,19.60
2018-05-11T08:06:10.973Z,18.10
2018-05-11T08:08:37.258Z,17.90
2018-05-11T08:11:03.521Z,17.40
2018-05-11T08:13:29.773Z,17.00
2018-05-11T08:15:56.151Z,17.30
2018-05-11T08:18:22.350Z,16.60
2018-05-11T08:20:48.623Z,16.40
2018-05-11T08:23:22.581Z,16.00
2018-05-11T08:25:48.881Z,16.00
2018-05-11T08:28:15.150Z,16.20
2018-05-11T08:30:42.162Z,15.40
2018-05-11T08:33:08.455Z,16.00
2018-05-11T08:35:34.730Z,15.70
2018-05-11T08:38:01.005Z,15.90
2018-05-11T08:40:27.291Z,16.50
2018-05-11T08:42:53.549Z,16.40
2018-05-11T08:45:19.846Z,16.00
2018-05-11T08:47:46.141Z,15.60
2018-05-11T08:50:12.419Z,15.30
2018-05-11T08:52:38.718Z,15.70
2018-05-11T08:55:04.978Z,15.90
2018-05-11T08:57:32.014Z,16.40
2018-05-11T08:59:58.290Z,16.40
2018-05-11T09:02:24.561Z,16.30
2018-05-11T09:04:50.877Z,16.20
2018-05-11T09:07:17.188Z,15.80
2018-05-11T09:09:43.801Z,16.30
2018-05-11T09:12:10.843Z,16.40
2018-05-11T09:14:37.877Z,16.40
2018-05-11T09:17:04.189Z,16.40
2018-05-11T09:19:30.449Z,16.70
2018-05-11T09:21:57.456Z,16.60
2018-05-11T09:24:23.743Z,16.60
2018-05-11T09:26:50.009Z,17.00
2018-05-11T09:29:16.318Z,17.60
2018-05-11T09:31:42.695Z,17.90
2018-05-11T09:34:09.635Z,19.20
2018-05-11T09:36:35.944Z,19.10
2018-05-11T09:39:02.291Z,19.10
2018-05-11T09:41:28.565Z,19.60
2018-05-11T09:43:55.658Z,20.40
2018-05-11T09:46:21.958Z,20.80
2018-05-11T09:48:48.200Z,21.20
2018-05-11T09:51:14.462Z,21.00
2018-05-11T09:53:40.754Z,21.50
2018-05-11T09:56:07.047Z,22.80
2018-05-11T09:58:33.307Z,22.90
2018-05-11T10:00:59.653Z,22.60
2018-05-11T10:03:25.929Z,23.20
2018-05-11T10:05:52.242Z,22.50
2018-05-11T10:08:18.542Z,21.50
2018-05-11T10:10:44.806Z,21.90
2018-05-11T10:13:11.166Z,23.10
2018-05-11T10:15:38.185Z,22.90
2018-05-11T10:18:04.469Z,23.00
2018-05-11T10:20:30.715Z,23.30
2018-05-11T10:22:57.018Z,22.90
2018-05-11T10:25:24.018Z,22.60
2018-05-11T10:27:50.310Z,22.90
2018-05-11T10:30:16.566Z,22.50
2018-05-11T10:32:42.846Z,23.20
2018-05-11T10:35:09.857Z,24.00
2018-05-11T10:37:36.129Z,23.70
2018-05-11T10:40:02.445Z,24.90
2018-05-11T10:42:29.461Z,22.50
2018-05-11T10:44:55.749Z,22.60
2018-05-11T10:47:22.018Z,23.90
2018-05-11T10:49:48.314Z,23.40
2018-05-11T10:52:14.586Z,23.10
2018-05-11T10:54:40.854Z,23.60
2018-05-11T10:57:07.902Z,24.70
2018-05-11T10:59:34.923Z,25.10
2018-05-11T11:02:01.210Z,24.80
2018-05-11T11:04:27.478Z,24.30
2018-05-11T11:06:53.777Z,23.60
2018-05-11T11:09:20.090Z,24.10
2018-05-11T11:11:46.361Z,24.00
2018-05-11T11:14:12.647Z,23.70
2018-05-11T11:16:38.956Z,24.20
2018-05-11T11:19:05.975Z,24.60
2018-05-11T11:21:32.244Z,24.70
2018-05-11T11:23:58.490Z,24.50
2018-05-11T11:26:24.770Z,24.30
2018-05-11T11:28:51.787Z,23.80
2018-05-11T11:31:18.086Z,24.10
2018-05-11T11:33:44.380Z,23.60
2018-05-11T11:36:10.748Z,23.20
2018-05-11T11:38:37.025Z,23.30
2018-05-11T11:41:03.368Z,24.00
2018-05-11T11:43:29.602Z,24.40
2018-05-11T11:45:56.602Z,26.40
2018-05-11T11:48:22.878Z,26.60
2018-05-11T11:50:49.904Z,24.80
2018-05-11T11:53:16.286Z,24.70
2018-05-11T11:55:42.588Z,24.20
2018-05-11T11:58:08.883Z,24.30
2018-05-11T12:00:35.134Z,24.40
2018-05-11T12:03:01.396Z,24.40
2018-05-11T12:05:28.465Z,24.60
2018-05-11T12:07:55.088Z,24.70
2018-05-11T12:10:22.118Z,24.00
2018-05-11T12:12:49.138Z,24.10
2018-05-11T12:15:15.391Z,24.20
2018-05-11T12:17:41.738Z,24.60
2018-05-11T12:20:08.742Z,25.10
2018-05-11T12:22:35.018Z,25.00
2018-05-11T12:25:02.093Z,23.70
2018-05-11T12:27:28.345Z,24.00
2018-05-11T12:29:54.641Z,23.50
2018-05-11T12:32:20.917Z,23.90
2018-05-11T12:34:47.221Z,23.80
2018-05-11T12:37:13.470Z,24.70
2018-05-11T12:39:39.765Z,24.90
2018-05-11T12:42:06.026Z,24.90
2018-05-11T12:44:32.277Z,24.30
2018-05-11T12:46:58.606Z,24.90
2018-05-11T12:49:24.860Z,25.10
2018-05-11T12:51:51.870Z,24.10
2018-05-11T12:54:18.150Z,24.00
2018-05-11T12:56:44.465Z,23.70
2018-05-11T12:59:10.741Z,23.30
2018-05-11T13:01:37.029Z,23.00
2018-05-11T13:04:04.051Z,22.50
2018-05-11T13:06:30.347Z,22.20
2018-05-11T13:08:57.240Z,22.50
2018-05-11T13:11:24.319Z,23.80
2018-05-11T13:13:50.597Z,23.30
2018-05-11T13:16:16.902Z,24.00
2018-05-11T13:18:43.193Z,23.80
2018-05-11T13:21:10.288Z,23.00
2018-05-11T13:23:36.464Z,22.70
2018-05-11T13:26:03.522Z,24.60
2018-05-11T13:28:29.783Z,24.20
2018-05-11T13:30:56.081Z,24.80
2018-05-11T13:33:22.354Z,24.90
2018-05-11T13:35:48.667Z,24.70
2018-05-11T13:38:14.965Z,25.80
2018-05-11T13:40:41.241Z,25.70
2018-05-11T13:43:07.539Z,25.60
2018-05-11T13:45:33.799Z,24.80
2018-05-11T13:48:00.070Z,23.70
2018-05-11T13:50:26.387Z,24.00
2018-05-11T13:52:52.672Z,23.90
2018-05-11T13:55:18.973Z,23.70
2018-05-11T13:57:45.993Z,23.00
2018-05-11T14:00:12.282Z,23.10
2018-05-11T14:02:38.538Z,22.90
2018-05-11T14:05:04.822Z,22.80
2018-05-11T14:07:31.099Z,23.30
2018-05-11T14:09:57.384Z,23.10
2018-05-11T14:12:23.669Z,24.00
2018-05-11T14:14:49.991Z,24.60
2018-05-11T14:17:16.254Z,25.00
2018-05-11T14:19:43.271Z,24.70
2018-05-11T14:22:09.557Z,24.00
2018-05-11T14:24:35.825Z,24.00
2018-05-11T14:27:02.150Z,24.10
2018-05-11T14:29:28.411Z,24.10
2018-05-11T14:31:54.794Z,24.60
2018-05-11T14:34:20.984Z,24.90
2018-05-11T14:36:48.259Z,23.70
2018-05-11T14:39:14.570Z,23.70
2018-05-11T14:41:40.861Z,23.30
2018-05-11T14:44:07.153Z,23.30
2018-05-11T14:46:33.435Z,22.70
2018-05-11T14:48:59.703Z,22.50
2018-05-11T14:51:26.014Z,22.50
2018-05-11T14:53:53.094Z,23.10
2018-05-11T14:56:19.361Z,23.10
2018-05-11T14:58:45.704Z,23.60
2018-05-11T15:01:11.948Z,24.90
2018-05-11T15:03:38.989Z,24.60
2018-05-11T15:06:06.053Z,25.20
2018-05-11T15:08:33.065Z,23.80
2018-05-11T15:10:59.354Z,23.90
2018-05-11T15:13:25.620Z,23.90
2018-05-11T15:15:51.982Z,24.60
2018-05-11T15:18:19.059Z,23.60
2018-05-11T15:20:45.330Z,23.70
2018-05-11T15:23:11.597Z,23.40
2018-05-11T15:25:38.610Z,23.80
2018-05-11T15:28:04.895Z,23.70
2018-05-11T15:30:31.171Z,23.10
2018-05-11T15:32:57.546Z,23.10
2018-05-11T15:35:23.862Z,22.60
2018-05-11T15:37:50.126Z,23.00
2018-05-11T15:40:16.412Z,23.50
2018-05-11T15:42:43.438Z,23.60
2018-05-11T15:45:09.729Z,23.30
2018-05-11T15:47:35.997Z,23.50
2018-05-11T15:50:02.302Z,23.60
2018-05-11T15:52:28.595Z,23.60
2018-05-11T15:54:55.662Z,22.80
2018-05-11T15:57:21.906Z,22.80
2018-05-11T15:59:48.162Z,22.40
2018-05-11T16:02:14.449Z,23.10
2018-05-11T16:04:40.708Z,23.40
2018-05-11T16:07:07.037Z,24.00
2018-05-11T16:09:33.309Z,23.90
2018-05-11T16:11:59.586Z,23.20
2018-05-11T16:14:25.866Z,23.90
2018-05-11T16:16:52.899Z,24.70
2018-05-11T16:19:19.189Z,24.80
2018-05-11T16:21:45.498Z,24.50
2018-05-11T16:24:11.830Z,23.70
2018-05-11T16:26:38.126Z,22.90
2018-05-11T16:29:04.395Z,22.50
2018-05-11T16:31:30.654Z,22.40
2018-05-11T16:33:56.935Z,21.80
2018-05-11T16:36:23.257Z,21.90
2018-05-11T16:38:50.254Z,22.10
2018-05-11T16:41:16.546Z,22.00
2018-05-11T16:43:42.821Z,21.80
2018-05-11T16:46:09.128Z,21.80
2018-05-11T16:48:35.403Z,22.30
2018-05-11T16:51:01.738Z,22.30
2018-05-11T16:53:28.013Z,22.10
2018-05-11T16:55:54.329Z,22.50
2018-05-11T16:58:21.358Z,21.70
2018-05-11T17:00:48.377Z,22.40
2018-05-11T17:03:14.735Z,22.20
2018-05-11T17:05:41.000Z,22.10
2018-05-11T17:08:07.350Z,21.90
2018-05-11T17:10:33.629Z,21.60
2018-05-11T17:12:59.891Z,21.80
2018-05-11T17:15:26.162Z,21.20
2018-05-11T17:17:52.458Z,21.70
2018-05-11T17:20:18.722Z,21.50
2018-05-11T17:22:45.120Z,21.40
2018-05-11T17:25:11.294Z,21.20
2018-05-11T17:27:37.598Z,21.60
2018-05-11T17:30:04.018Z,21.30
2018-05-11T17:32:30.282Z,21.00
2018-05-11T17:34:57.362Z,21.00
2018-05-11T17:37:24.407Z,21.10
2018-05-11T17:39:50.658Z,21.00
2018-05-11T17:42:16.962Z,20.90
2018-05-11T17:44:43.239Z,20.90
2018-05-11T17:47:09.569Z,21.10
2018-05-11T17:49:35.887Z,21.20
2018-05-11T17:52:02.190Z,21.10
2018-05-11T17:54:29.222Z,21.10
2018-05-11T17:56:55.573Z,21.00
2018-05-11T17:59:21.831Z,21.00
2018-05-11T18:01:48.125Z,20.80
2018-05-11T18:04:15.163Z,20.80
2018-05-11T18:06:41.500Z,21.10
2018-05-11T18:09:07.715Z,21.00
2018-05-11T18:11:34.018Z,20.90
2018-05-11T18:14:00.340Z,21.00
2018-05-11T18:16:26.623Z,21.40
2018-05-11T18:18:53.690Z,21.20
2018-05-11T18:21:19.970Z,20.70
2018-05-11T18:23:46.251Z,21.10
2018-05-11T18:26:13.250Z,20.70
2018-05-11T18:28:39.569Z,20.90
2018-05-11T18:31:05.859Z,20.60
2018-05-11T18:33:32.135Z,20.90
2018-05-11T18:35:58.393Z,20.60
2018-05-11T18:38:24.679Z,20.80
2018-05-11T18:40:50.966Z,20.80
2018-05-11T18:43:18.001Z,20.60
2018-05-11T18:45:45.050Z,20.70
2018-05-11T18:48:11.310Z,20.60
2018-05-11T18:50:37.593Z,20.70
2018-05-11T18:53:04.097Z,20.50
2018-05-11T18:55:30.246Z,20.70
2018-05-11T18:57:56.509Z,20.70
2018-05-11T19:00:22.810Z,20.70
2018-05-11T19:02:49.106Z,20.50
2018-05-11T19:05:15.391Z,20.80
2018-05-11T19:07:42.410Z,20.30
2018-05-11T19:10:08.691Z,20.40
2018-05-11T19:12:34.971Z,20.30
2018-05-11T19:15:01.275Z,20.10
2018-05-11T19:17:27.561Z,19.90
2018-05-11T19:19:53.879Z,20.50
2018-05-11T19:22:20.158Z,20.20
2018-05-11T19:24:46.435Z,20.10
2018-05-11T19:27:12.700Z,20.30
2018-05-11T19:29:39.705Z,19.90
2018-05-11T19:32:06.002Z,20.00
2018-05-11T19:34:32.390Z,19.90
2018-05-11T19:36:59.442Z,20.10
2018-05-11T19:39:26.452Z,20.00
2018-05-11T19:41:52.742Z,20.00
2018-05-11T19:44:19.014Z,19.90
2018-05-11T19:46:45.324Z,19.80
2018-05-11T19:49:11.642Z,20.10
2018-05-11T19:51:37.909Z,19.90
2018-05-11T19:54:04.195Z,19.90
2018-05-11T19:56:30.465Z,19.70
2018-05-11T19:58:56.750Z,19.70
2018-05-11T20:01:23.030Z,19.90
2018-05-11T20:03:49.289Z,19.30
2018-05-11T20:06:16.351Z,19.60
2018-05-11T20:08:42.622Z,19.50
2018-05-11T20:11:08.922Z,19.30
2018-05-11T20:13:35.202Z,19.60
2018-05-11T20:16:01.473Z,19.60
2018-05-11T20:18:27.766Z,19.60
2018-05-11T20:20:54.042Z,19.40
2018-05-11T20:23:20.331Z,19.30
2018-05-11T20:25:47.358Z,19.10
2018-05-11T20:28:13.666Z,19.40
2018-05-11T20:30:39.937Z,19.30
2018-05-11T20:33:06.987Z,19.10
2018-05-11T20:35:33.240Z,19.30
2018-05-11T20:38:00.263Z,19.30
2018-05-11T20:40:26.593Z,19.00
2018-05-11T20:42:52.889Z,19.30
2018-05-11T20:45:19.182Z,19.20
2018-05-11T20:47:45.463Z,18.90
2018-05-11T20:50:11.768Z,18.90
2018-05-11T20:52:38.071Z,18.90
2018-05-11T20:55:04.414Z,19.00
2018-05-11T20:57:30.723Z,18.70
2018-05-11T20:59:57.784Z,18.80
2018-05-11T21:02:24.035Z,18.50
2018-05-11T21:04:50.405Z,18.40
2018-05-11T21:07:17.364Z,18.60
2018-05-11T21:09:44.386Z,18.70
2018-05-11T21:12:10.669Z,18.80
2018-05-11T21:14:37.758Z,18.70
2018-05-11T21:17:04.735Z,18.70
2018-05-11T21:19:31.785Z,18.60
2018-05-11T21:21:58.812Z,18.60
2018-05-11T21:24:25.101Z,18.50
2018-05-11T21:26:51.383Z,18.30
2018-05-11T21:29:17.639Z,18.30
2018-05-11T21:31:44.673Z,18.60
2018-05-11T21:34:11.702Z,18.50
2018-05-11T21:36:37.986Z,18.70
2018-05-11T21:39:04.294Z,18.40
2018-05-11T21:41:31.314Z,18.50
2018-05-11T21:43:57.574Z,18.40
2018-05-11T21:46:23.890Z,18.50
2018-05-11T21:48:50.923Z,18.00
2018-05-11T21:51:17.977Z,18.20
2018-05-11T21:53:44.986Z,18.50
2018-05-11T21:56:11.275Z,18.40
2018-05-11T21:58:38.283Z,17.80
2018-05-11T22:01:04.582Z,18.20
2018-05-11T22:03:30.862Z,18.40
2018-05-11T22:05:57.207Z,18.20
2018-05-11T22:08:23.455Z,18.10
2018-05-11T22:10:49.727Z,17.80
2018-05-11T22:13:16.017Z,17.90
2018-05-11T22:15:42.313Z,17.90
2018-05-11T22:18:08.615Z,18.00
2018-05-11T22:20:34.889Z,17.70
2018-05-11T22:23:01.901Z,17.70
2018-05-11T22:25:28.178Z,17.90
2018-05-11T22:27:55.445Z,17.90
2018-05-11T22:30:21.774Z,17.90
2018-05-11T22:32:48.047Z,17.80
2018-05-11T22:35:14.326Z,17.90
2018-05-11T22:37:40.598Z,17.90
2018-05-11T22:40:06.883Z,17.60
2018-05-11T22:42:33.231Z,17.80
2018-05-11T22:44:59.511Z,17.80
2018-05-11T22:47:25.819Z,17.60
2018-05-11T22:49:52.150Z,17.90
2018-05-11T22:52:18.418Z,17.80
2018-05-11T22:54:44.754Z,17.80
2018-05-11T22:57:11.049Z,17.90
2018-05-11T22:59:37.319Z,17.50
2018-05-11T23:02:03.614Z,17.60
2018-05-11T23:04:29.897Z,17.40
2018-05-11T23:06:56.171Z,17.50
2018-05-11T23:09:22.444Z,17.60
2018-05-11T23:11:48.781Z,17.60
2018-05-11T23:14:15.099Z,17.80
2018-05-11T23:16:42.125Z,17.60
2018-05-11T23:19:08.395Z,17.30
2018-05-11T23:21:34.694Z,17.20
2018-05-11T23:24:01.723Z,17.10
2018-05-11T23:26:28.037Z,17.40
2018-05-11T23:28:54.328Z,17.10
2018-05-11T23:31:20.733Z,17.10
2018-05-11T23:33:47.028Z,17.40
2018-05-11T23:36:13.326Z,17.10
2018-05-11T23:38:39.587Z,17.00
2018-05-11T23:41:05.861Z,17.20
2018-05-11T23:43:32.862Z,17.10
2018-05-11T23:45:59.167Z,17.00
2018-05-11T23:48:25.429Z,17.10
2018-05-11T23:50:51.690Z,17.10
2018-05-11T23:53:18.735Z,17.20
2018-05-11T23:55:45.814Z,17.10
2018-05-11T23:58:12.132Z,16.70
